Tombos, Brazil
Current Conditions -  °F | °C
As of 1:00 PM on Saturday 25 Oct 2014 (Local Time) from SBCP Reporting Station
Clear Clear  
Wind Chill: 88°   Ceiling: Unl
Heat Index: 89°   Visibility: 6mi
Dew Point: 64°   Wind: 9mph
Humidity: 46%   Direction: 60°ENE
Pressure: 29.91"   Gusts: NA
Location:  20.9°S, 42.02°W
Report Text: SBCP 251500Z 06008KT CAVOK 31/18 Q1013
Loading
Personal Weather Stations






























Interactive Weather Map
Tropical Storm Tracking
New forecast layout! Learn more

10-Day Weather Forecast

Advertisements
Track Severe Weather on mobile